Terminal Aerodrome Forecast
Issued by NWS Pocatello, ID

Home | Current Version | Previous Version | Text Only | Print | Product List | Glossary On
Versions: 1 2 3 4 5 6 7 8 9 10 11 12 13
000
FTUS45 KPIH 171700
TAFIDA
TAF
KIDA 171727Z 1718/1818 35005KT P6SM SCT100 BKN250
     FM172100 22010KT P6SM VCTS SCT060CB BKN120
     FM180100 VRB05KT P6SM FEW100 BKN200
     FM181000 35007KT P6SM VCSH SCT080 BKN120
     FM181600 22011G20KT P6SM -SHRA SCT050 BKN100=

USA.gov is the U.S. government's official web portal to all federal, state and local government web resources and services.